createdAt,value
2022-10-21T00:00:23.417Z,100402.31
2022-10-21T00:02:51.145Z,100393.72
2022-10-21T00:05:18.638Z,100390.50
2022-10-21T00:07:46.063Z,100398.44
2022-10-21T00:10:13.844Z,100392.16
2022-10-21T00:12:41.409Z,100399.31
2022-10-21T00:15:10.483Z,100402.03
2022-10-21T00:17:39.585Z,100392.28
2022-10-21T00:20:09.003Z,100387.66
2022-10-21T00:22:37.281Z,100392.31
2022-10-21T00:25:05.761Z,100385.66
2022-10-21T00:27:33.249Z,100378.25
2022-10-21T00:30:00.708Z,100369.84
2022-10-21T00:32:28.419Z,100371.25
2022-10-21T00:34:55.832Z,100372.91
2022-10-21T00:37:23.256Z,100366.69
2022-10-21T00:39:52.292Z,100364.81
2022-10-21T00:42:22.941Z,100347.19
2022-10-21T00:45:05.772Z,100357.06
2022-10-21T00:47:56.318Z,100359.81
2022-10-21T00:50:42.707Z,100365.00
2022-10-21T00:53:14.521Z,100355.84
2022-10-21T00:55:47.137Z,100350.34
2022-10-21T00:58:15.918Z,100351.44
2022-10-21T01:00:43.670Z,100354.25
2022-10-21T01:03:12.297Z,100348.22
2022-10-21T01:05:40.995Z,100342.94
2022-10-21T01:08:08.694Z,100344.59
2022-10-21T01:10:38.017Z,100344.38
2022-10-21T01:13:16.690Z,100336.03
2022-10-21T01:15:55.451Z,100337.97
2022-10-21T01:18:34.505Z,100328.03
2022-10-21T01:21:14.451Z,100338.22
2022-10-21T01:24:17.137Z,100336.63
2022-10-21T01:27:06.045Z,100333.19
2022-10-21T01:29:42.439Z,100335.28
2022-10-21T01:32:30.294Z,100337.50
2022-10-21T01:35:03.227Z,100327.47
2022-10-21T01:37:38.335Z,100321.00
2022-10-21T01:40:14.025Z,100323.41
2022-10-21T01:42:50.406Z,100307.41
2022-10-21T01:45:49.006Z,100305.06
2022-10-21T01:48:21.027Z,100297.87
2022-10-21T01:50:52.230Z,100299.62
2022-10-21T01:53:21.077Z,100294.50
2022-10-21T01:55:49.296Z,100301.25
2022-10-21T01:58:20.568Z,100300.81
2022-10-21T02:00:49.937Z,100311.16
2022-10-21T02:03:22.731Z,100310.31
2022-10-21T02:05:50.262Z,100300.63
2022-10-21T02:08:17.987Z,100308.13
2022-10-21T02:10:49.317Z,100297.50
2022-10-21T02:13:21.149Z,100299.22
2022-10-21T02:15:49.008Z,100304.47
2022-10-21T02:18:21.996Z,100319.38
2022-10-21T02:20:53.090Z,100329.38
2022-10-21T02:23:26.206Z,100317.09
2022-10-21T02:25:53.930Z,100312.88
2022-10-21T02:28:21.506Z,100312.63
2022-10-21T02:30:59.779Z,100311.56
2022-10-21T02:33:39.665Z,100319.69
2022-10-21T02:36:17.366Z,100318.63
2022-10-21T02:38:48.443Z,100324.75
2022-10-21T02:41:19.372Z,100318.50
2022-10-21T02:44:16.330Z,100307.25
2022-10-21T02:46:44.621Z,100306.25
2022-10-21T02:49:12.919Z,100305.75
2022-10-21T02:51:41.500Z,100299.62
2022-10-21T02:54:08.919Z,100301.25
2022-10-21T02:56:36.648Z,100297.03
2022-10-21T02:59:04.093Z,100310.34
2022-10-21T03:01:31.573Z,100301.97
2022-10-21T03:03:59.236Z,100301.66
2022-10-21T03:06:26.686Z,100312.81
2022-10-21T03:08:54.165Z,100314.22
2022-10-21T03:11:22.017Z,100304.16
2022-10-21T03:13:49.416Z,100302.88
2022-10-21T03:18:49.484Z,100304.66
2022-10-21T03:21:16.872Z,100299.62
2022-10-21T03:23:44.323Z,100306.69
2022-10-21T03:26:12.054Z,100300.25
2022-10-21T03:28:39.592Z,100297.50
2022-10-21T03:31:06.998Z,100284.94
2022-10-21T03:33:34.666Z,100282.13
2022-10-21T03:36:02.047Z,100278.81
2022-10-21T03:38:29.640Z,100284.53
2022-10-21T03:40:57.366Z,100290.94
2022-10-21T03:43:24.781Z,100284.81
2022-10-21T03:45:52.186Z,100287.06
2022-10-21T03:48:19.877Z,100281.09
2022-10-21T03:50:47.592Z,100277.13
2022-10-21T03:53:31.019Z,100273.22
2022-10-21T03:56:02.793Z,100273.56
2022-10-21T03:58:30.259Z,100267.66
2022-10-21T04:00:57.661Z,100265.75
2022-10-21T04:03:25.379Z,100262.53
2022-10-21T04:05:52.804Z,100270.22
2022-10-21T04:08:20.190Z,100260.28
2022-10-21T04:10:47.991Z,100251.81
2022-10-21T04:13:15.459Z,100253.22
2022-10-21T04:15:42.870Z,100252.88
2022-10-21T04:18:10.576Z,100252.44
2022-10-21T04:20:38.081Z,100255.03
2022-10-21T04:23:05.470Z,100256.41
2022-10-21T04:25:33.276Z,100257.06
2022-10-21T04:28:00.673Z,100259.62
2022-10-21T04:30:28.109Z,100261.66
2022-10-21T04:32:55.837Z,100252.12
2022-10-21T04:35:23.275Z,100239.66
2022-10-21T04:37:50.709Z,100231.97
2022-10-21T04:40:18.479Z,100223.81
2022-10-21T04:42:49.681Z,100229.72
2022-10-21T04:45:17.746Z,100230.56
2022-10-21T04:47:45.412Z,100221.66
2022-10-21T04:50:12.865Z,100209.78
2022-10-21T04:52:40.663Z,100211.84
2022-10-21T04:55:09.032Z,100217.63
2022-10-21T04:57:36.693Z,100226.63
2022-10-21T05:00:05.240Z,100222.97
2022-10-21T05:02:33.049Z,100223.09
2022-10-21T05:05:00.471Z,100226.06
2022-10-21T05:07:27.970Z,100226.19
2022-10-21T05:09:55.627Z,100225.00
2022-10-21T05:12:23.139Z,100216.87
2022-10-21T05:14:50.595Z,100213.00
2022-10-21T05:17:18.303Z,100221.56
2022-10-21T05:19:45.699Z,100218.59
2022-10-21T05:22:13.143Z,100219.87
2022-10-21T05:24:40.917Z,100226.63
2022-10-21T05:27:08.314Z,100227.34
2022-10-21T05:29:35.713Z,100225.66
2022-10-21T05:32:03.543Z,100223.19
2022-10-21T05:34:30.927Z,100226.59
2022-10-21T05:36:58.524Z,100229.72
2022-10-21T05:39:26.334Z,100234.13
2022-10-21T05:41:53.745Z,100234.94
2022-10-21T05:44:21.286Z,100224.94
2022-10-21T05:46:48.943Z,100227.59
2022-10-21T05:49:16.341Z,100209.75
2022-10-21T05:51:45.109Z,100201.91
2022-10-21T05:54:12.869Z,100200.84
2022-10-21T05:56:42.537Z,100213.81
2022-10-21T05:59:10.449Z,100226.72
2022-10-21T06:01:39.541Z,100253.59
2022-10-21T06:04:07.953Z,100252.22
2022-10-21T06:06:35.393Z,100243.09
2022-10-21T06:09:02.869Z,100261.09
2022-10-21T06:11:30.972Z,100263.78
2022-10-21T06:13:58.373Z,100264.34
2022-10-21T06:16:25.835Z,100270.69
2022-10-21T06:18:53.528Z,100271.22
2022-10-21T06:21:20.945Z,100256.41
2022-10-21T06:23:48.370Z,100255.66
2022-10-21T06:26:17.187Z,100254.59
2022-10-21T06:28:45.110Z,100262.53
2022-10-21T06:31:18.418Z,100275.16
2022-10-21T06:33:46.162Z,100285.91
2022-10-21T06:36:14.058Z,100295.84
2022-10-21T06:38:41.624Z,100284.09
2022-10-21T06:41:13.560Z,100273.94
2022-10-21T06:43:42.362Z,100262.06
2022-10-21T06:46:12.907Z,100260.19
2022-10-21T06:48:40.568Z,100263.06
2022-10-21T06:51:15.037Z,100268.63
2022-10-21T06:53:43.734Z,100248.06
2022-10-21T06:56:16.692Z,100244.94
2022-10-21T06:58:48.130Z,100241.84
2022-10-21T07:01:33.815Z,100247.41
2022-10-21T07:04:06.896Z,100260.63
2022-10-21T07:09:08.159Z,100253.50
2022-10-21T07:11:35.663Z,100250.31
2022-10-21T07:14:03.325Z,100260.38
2022-10-21T07:16:33.171Z,100250.31
2022-10-21T07:19:00.569Z,100247.53
2022-10-21T07:21:30.236Z,100253.87
2022-10-21T07:23:59.550Z,100259.75
2022-10-21T07:26:29.716Z,100257.03
2022-10-21T07:28:59.924Z,100266.59
2022-10-21T07:31:29.006Z,100264.31
2022-10-21T07:33:56.745Z,100270.91
2022-10-21T07:36:26.861Z,100278.81
2022-10-21T07:38:57.226Z,100280.97
2022-10-21T07:41:27.279Z,100279.47
2022-10-21T07:43:55.138Z,100274.00
2022-10-21T07:46:22.681Z,100260.06
2022-10-21T07:48:50.817Z,100255.47
2022-10-21T07:51:21.506Z,100253.00
2022-10-21T07:53:50.377Z,100254.47
2022-10-21T07:56:21.420Z,100248.22
2022-10-21T07:58:50.810Z,100239.12
2022-10-21T08:01:19.585Z,100237.13
2022-10-21T08:03:48.756Z,100234.09
2022-10-21T08:06:17.312Z,100225.12
2022-10-21T08:08:45.724Z,100219.97
2022-10-21T08:11:21.885Z,100228.22
2022-10-21T08:13:49.370Z,100227.06
2022-10-21T08:16:17.058Z,100222.63
2022-10-21T08:18:44.568Z,100215.19
2022-10-21T08:21:13.105Z,100217.06
2022-10-21T08:23:41.006Z,100208.06
2022-10-21T08:26:12.009Z,100218.78
2022-10-21T08:28:40.151Z,100211.59
2022-10-21T08:31:14.133Z,100213.94
2022-10-21T08:33:41.619Z,100211.31
2022-10-21T08:36:12.721Z,100217.94
2022-10-21T08:38:40.311Z,100204.41
2022-10-21T08:41:18.946Z,100191.84
2022-10-21T08:43:46.669Z,100189.84
2022-10-21T08:46:18.489Z,100192.03
2022-10-21T08:48:51.838Z,100194.38
2022-10-21T08:51:35.062Z,100181.91
2022-10-21T08:54:05.711Z,100175.19
2022-10-21T08:56:33.393Z,100186.03
2022-10-21T08:59:00.850Z,100174.28
2022-10-21T09:01:39.402Z,100172.66
2022-10-21T09:04:28.470Z,100168.44
2022-10-21T09:07:19.503Z,100162.84
2022-10-21T09:09:53.985Z,100168.47
2022-10-21T09:12:30.712Z,100174.03
2022-10-21T09:15:27.681Z,100151.59
2022-10-21T09:18:30.316Z,100160.34
2022-10-21T09:21:11.157Z,100151.81
2022-10-21T09:23:57.565Z,100157.19
2022-10-21T09:26:36.899Z,100148.19
2022-10-21T09:29:21.353Z,100147.03
2022-10-21T09:31:55.178Z,100152.13
2022-10-21T09:34:43.937Z,100141.97
2022-10-21T09:37:18.691Z,100140.84
2022-10-21T09:39:50.170Z,100121.31
2022-10-21T09:42:35.713Z,100126.34
2022-10-21T09:45:06.526Z,100118.22
2022-10-21T09:47:34.287Z,100115.59
2022-10-21T09:50:07.594Z,100117.56
2022-10-21T09:52:36.571Z,100115.75
2022-10-21T09:55:04.518Z,100107.06
2022-10-21T09:58:01.173Z,100108.53
2022-10-21T10:01:01.064Z,100108.53
2022-10-21T10:03:37.191Z,100108.28
2022-10-21T10:06:05.909Z,100106.47
2022-10-21T10:08:33.697Z,100091.09
2022-10-21T10:11:02.235Z,100089.84
2022-10-21T10:13:31.603Z,100092.75
2022-10-21T10:16:12.886Z,100071.78
2022-10-21T10:18:41.430Z,100076.12
2022-10-21T10:29:01.092Z,100071.25
2022-10-21T10:31:32.345Z,100065.03
2022-10-21T10:34:04.215Z,100053.25
2022-10-21T10:36:35.828Z,100052.00
2022-10-21T10:39:07.656Z,100046.84
2022-10-21T10:41:38.960Z,100048.53
2022-10-21T10:44:25.342Z,100043.41
2022-10-21T10:46:57.518Z,100029.25
2022-10-21T10:49:26.697Z,100037.47
2022-10-21T10:52:05.305Z,100026.91
2022-10-21T10:54:32.827Z,100020.91
2022-10-21T10:57:04.528Z,100020.00
2022-10-21T10:59:56.865Z,100003.37
2022-10-21T11:02:57.014Z,100007.44
2022-10-21T11:05:51.210Z,99999.91
2022-10-21T11:08:42.325Z,100003.37
2022-10-21T11:11:22.774Z,100001.41
2022-10-21T11:13:50.552Z,100000.16
2022-10-21T11:16:27.180Z,100002.81
2022-10-21T11:19:02.281Z,99989.91
2022-10-21T11:21:53.492Z,99995.44
2022-10-21T11:24:56.851Z,99998.19
2022-10-21T11:27:45.499Z,99986.09
2022-10-21T11:30:45.600Z,99978.50
2022-10-21T11:33:33.437Z,99969.59
2022-10-21T11:36:26.611Z,99965.06
2022-10-21T11:39:25.341Z,99949.69
2022-10-21T11:42:14.133Z,99950.38
2022-10-21T11:45:21.277Z,99943.53
2022-10-21T11:48:03.809Z,99945.50
2022-10-21T11:50:46.325Z,99949.03
2022-10-21T11:53:29.074Z,99946.34
2022-10-21T11:56:27.564Z,99933.91
2022-10-21T11:58:55.483Z,99936.34
2022-10-21T12:01:41.955Z,99920.78
2022-10-21T12:04:51.641Z,99911.78
2022-10-21T12:07:43.156Z,99918.09
2022-10-21T12:10:34.243Z,99924.44
2022-10-21T12:13:17.280Z,99923.63
2022-10-21T12:15:52.095Z,99911.09
2022-10-21T12:18:21.830Z,99911.28
2022-10-21T12:20:51.860Z,99909.69
2022-10-21T12:23:21.920Z,99911.03
2022-10-21T12:26:15.365Z,99908.06
2022-10-21T12:28:51.603Z,99907.41
2022-10-21T12:31:49.329Z,99902.72
2022-10-21T12:34:16.785Z,99898.28
2022-10-21T12:36:46.839Z,99891.56
2022-10-21T12:39:50.418Z,99898.91
2022-10-21T12:42:20.095Z,99887.22
2022-10-21T12:44:52.453Z,99885.03
2022-10-21T12:47:32.172Z,99893.66
2022-10-21T12:50:14.813Z,99878.56
2022-10-21T12:52:43.685Z,99881.44
2022-10-21T12:55:24.632Z,99871.44
2022-10-21T12:57:58.309Z,99862.06
2022-10-21T13:00:28.797Z,99862.75
2022-10-21T13:03:12.670Z,99870.38
2022-10-21T13:05:40.611Z,99869.06
2022-10-21T13:08:27.124Z,99868.62
2022-10-21T13:11:06.320Z,99864.94
2022-10-21T13:13:35.631Z,99871.16
2022-10-21T13:16:18.459Z,99864.34
2022-10-21T13:19:01.066Z,99860.69
2022-10-21T13:21:40.191Z,99849.06
2022-10-21T13:24:38.300Z,99851.56
2022-10-21T13:27:26.943Z,99846.50
2022-10-21T13:29:55.140Z,99838.25
2022-10-21T13:32:35.113Z,99833.00
2022-10-21T13:35:31.038Z,99835.00
2022-10-21T13:38:03.535Z,99834.63
2022-10-21T13:40:39.033Z,99836.44
2022-10-21T13:43:13.812Z,99830.50
2022-10-21T13:45:49.737Z,99826.25
2022-10-21T13:48:19.827Z,99827.38
2022-10-21T13:50:49.944Z,99818.47
2022-10-21T13:53:17.250Z,99824.97
2022-10-21T13:55:56.085Z,99828.34
2022-10-21T13:58:24.888Z,99821.28
2022-10-21T14:00:57.793Z,99812.34
2022-10-21T14:03:28.025Z,99813.47
2022-10-21T14:06:00.238Z,99805.38
2022-10-21T14:08:46.833Z,99804.78
2022-10-21T14:11:18.797Z,99803.97
2022-10-21T14:13:48.649Z,99800.94
2022-10-21T14:16:32.419Z,99809.19
2022-10-21T14:19:02.747Z,99794.00
2022-10-21T14:21:32.791Z,99796.81
2022-10-21T14:24:01.770Z,99787.44
2022-10-21T14:26:32.703Z,99789.41
2022-10-21T14:29:01.103Z,99781.56
2022-10-21T14:31:29.262Z,99782.91
2022-10-21T14:33:56.762Z,99785.31
2022-10-21T14:36:27.781Z,99788.75
2022-10-21T14:39:08.685Z,99787.00
2022-10-21T14:41:38.527Z,99785.22
2022-10-21T14:44:28.129Z,99785.63
2022-10-21T14:46:55.549Z,99779.81
2022-10-21T14:49:29.680Z,99790.22
2022-10-21T14:52:07.139Z,99787.25
2022-10-21T14:54:44.280Z,99781.56
2022-10-21T14:57:30.646Z,99785.97
2022-10-21T14:59:59.368Z,99787.94
2022-10-21T15:02:34.451Z,99788.19
2022-10-21T15:05:03.096Z,99771.16
2022-10-21T15:07:32.593Z,99784.38
2022-10-21T15:10:02.824Z,99772.06
2022-10-21T15:12:47.110Z,99770.75
2022-10-21T15:15:40.504Z,99754.84
2022-10-21T15:18:32.258Z,99763.66
2022-10-21T15:21:06.137Z,99745.94
2022-10-21T15:23:38.025Z,99752.72
2022-10-21T15:26:30.831Z,99761.41
2022-10-21T15:28:58.759Z,99767.81
2022-10-21T15:31:28.750Z,99766.50
2022-10-21T15:33:57.536Z,99756.09
2022-10-21T15:36:25.413Z,99762.78
2022-10-21T15:38:54.722Z,99759.84
2022-10-21T15:41:25.341Z,99756.25
2022-10-21T15:43:56.078Z,99759.75
2022-10-21T15:46:25.967Z,99754.22
2022-10-21T15:48:54.074Z,99759.44
2022-10-21T15:51:21.646Z,99750.78
2022-10-21T15:53:49.103Z,99749.78
2022-10-21T15:56:18.415Z,99754.91
2022-10-21T15:58:46.613Z,99754.72
2022-10-21T16:01:16.377Z,99744.03
2022-10-21T16:03:45.855Z,99743.38
2022-10-21T16:06:19.662Z,99749.31
2022-10-21T16:08:48.403Z,99750.50
2022-10-21T16:11:25.638Z,99746.16
2022-10-21T16:14:02.913Z,99763.06
2022-10-21T16:16:30.512Z,99772.16
2022-10-21T16:18:58.250Z,99768.59
2022-10-21T16:21:26.370Z,99764.34
2022-10-21T16:23:55.784Z,99767.09
2022-10-21T16:26:25.565Z,99773.91
2022-10-21T16:28:55.241Z,99770.75
2022-10-21T16:31:23.513Z,99771.50
2022-10-21T16:33:50.940Z,99769.59
2022-10-21T16:36:27.776Z,99772.97
2022-10-21T16:38:55.704Z,99776.75
2022-10-21T16:41:28.189Z,99773.28
2022-10-21T16:43:58.771Z,99771.63
2022-10-21T16:46:36.105Z,99761.97
2022-10-21T16:49:12.085Z,99774.84
2022-10-21T16:51:46.232Z,99756.25
2022-10-21T16:54:15.098Z,99755.22
2022-10-21T16:56:42.781Z,99756.25
2022-10-21T16:59:10.293Z,99760.69
2022-10-21T17:01:38.070Z,99755.06
2022-10-21T17:04:05.875Z,99762.72
2022-10-21T17:06:34.444Z,99760.59
2022-10-21T17:09:02.128Z,99764.19
2022-10-21T17:11:33.441Z,99762.69
2022-10-21T17:14:02.260Z,99755.75
2022-10-21T17:16:30.276Z,99751.97
2022-10-21T17:18:58.999Z,99754.66
2022-10-21T17:21:28.956Z,99756.47
2022-10-21T17:23:57.591Z,99758.72
2022-10-21T17:26:26.046Z,99753.47
2022-10-21T17:28:53.970Z,99768.03
2022-10-21T17:31:23.850Z,99751.56
2022-10-21T17:33:52.768Z,99759.63
2022-10-21T17:36:20.569Z,99752.88
2022-10-21T17:38:48.594Z,99744.06
2022-10-21T17:41:18.725Z,99748.38
2022-10-21T17:43:47.402Z,99748.41
2022-10-21T17:46:20.216Z,99748.94
2022-10-21T17:48:52.366Z,99752.19
2022-10-21T17:51:20.818Z,99744.53
2022-10-21T17:53:50.023Z,99746.03
2022-10-21T17:56:18.154Z,99749.34
2022-10-21T17:58:49.719Z,99753.25
2022-10-21T18:01:17.952Z,99760.06
2022-10-21T18:03:45.898Z,99756.03
2022-10-21T18:06:14.232Z,99745.50
2022-10-21T18:08:42.516Z,99741.03
2022-10-21T18:11:12.986Z,99735.94
2022-10-21T18:13:40.713Z,99739.50
2022-10-21T18:16:19.722Z,99739.75
2022-10-21T18:18:48.736Z,99734.06
2022-10-21T18:21:19.391Z,99728.94
2022-10-21T18:23:48.917Z,99734.56
2022-10-21T18:26:19.713Z,99740.59
2022-10-21T18:29:05.768Z,99733.03
2022-10-21T18:31:33.847Z,99740.28
2022-10-21T18:34:03.981Z,99731.34
2022-10-21T18:36:32.667Z,99720.66
2022-10-21T18:39:01.207Z,99723.94
2022-10-21T18:41:30.447Z,99717.84
2022-10-21T18:44:04.667Z,99711.50
2022-10-21T18:46:32.665Z,99709.63
2022-10-21T18:49:02.679Z,99710.25
2022-10-21T18:51:30.370Z,99701.59
2022-10-21T18:53:58.297Z,99704.09
2022-10-21T18:56:27.061Z,99706.97
2022-10-21T18:58:58.063Z,99697.91
2022-10-21T19:01:26.872Z,99697.50
2022-10-21T19:03:56.099Z,99693.81
2022-10-21T19:06:39.177Z,99704.94
2022-10-21T19:09:16.093Z,99691.94
2022-10-21T19:11:44.174Z,99693.34
2022-10-21T19:14:14.398Z,99684.09
2022-10-21T19:16:43.933Z,99674.72
2022-10-21T19:19:13.091Z,99672.09
2022-10-21T19:21:45.791Z,99673.87
2022-10-21T19:24:13.850Z,99681.97
2022-10-21T19:26:43.931Z,99685.06
2022-10-21T19:29:14.203Z,99691.19
2022-10-21T19:31:42.267Z,99687.53
2022-10-21T19:34:14.876Z,99689.88
2022-10-21T19:36:43.145Z,99686.41
2022-10-21T19:39:11.020Z,99682.59
2022-10-21T19:41:39.982Z,99687.63
2022-10-21T19:44:08.237Z,99689.31
2022-10-21T19:46:36.366Z,99685.22
2022-10-21T19:49:06.421Z,99680.87
2022-10-21T19:51:34.512Z,99684.66
2022-10-21T19:54:04.982Z,99688.06
2022-10-21T19:56:34.673Z,99681.53
2022-10-21T19:59:03.318Z,99682.97
2022-10-21T20:01:31.713Z,99675.59
2022-10-21T20:04:00.652Z,99673.06
2022-10-21T20:06:30.468Z,99672.00
2022-10-21T20:09:00.440Z,99679.78
2022-10-21T20:11:29.379Z,99676.53
2022-10-21T20:13:57.122Z,99663.88
2022-10-21T20:16:30.261Z,99672.03
2022-10-21T20:19:00.218Z,99672.09
2022-10-21T20:21:28.216Z,99664.44
2022-10-21T20:23:57.145Z,99669.53
2022-10-21T20:26:25.013Z,99679.78
2022-10-21T20:28:52.728Z,99677.25
2022-10-21T20:31:20.603Z,99682.09
2022-10-21T20:33:50.510Z,99683.53
2022-10-21T20:36:26.693Z,99692.56
2022-10-21T20:38:56.538Z,99690.03
2022-10-21T20:41:26.698Z,99689.19
2022-10-21T20:43:55.058Z,99685.62
2022-10-21T20:46:24.018Z,99679.06
2022-10-21T20:48:53.055Z,99673.66
2022-10-21T20:51:24.005Z,99676.69
2022-10-21T20:53:58.139Z,99680.06
2022-10-21T20:56:33.058Z,99668.22
2022-10-21T20:59:00.945Z,99673.94
2022-10-21T21:01:31.351Z,99675.09
2022-10-21T21:04:00.903Z,99682.38
2022-10-21T21:06:29.005Z,99677.06
2022-10-21T21:09:29.040Z,99676.25
2022-10-21T21:11:44.296Z,99681.09
2022-10-21T21:14:11.775Z,99665.34
2022-10-21T21:16:39.192Z,99673.84
2022-10-21T21:19:08.682Z,99666.44
2022-10-21T21:21:36.951Z,99666.44
2022-10-21T21:24:04.969Z,99669.16
2022-10-21T21:26:35.165Z,99682.09
2022-10-21T21:29:02.969Z,99672.84
2022-10-21T21:31:31.086Z,99672.28
2022-10-21T21:33:58.942Z,99671.75
2022-10-21T21:36:26.648Z,99660.50
2022-10-21T21:38:54.208Z,99656.34
2022-10-21T21:41:23.584Z,99651.56
2022-10-21T21:43:52.161Z,99656.94
2022-10-21T21:46:24.055Z,99665.03
2022-10-21T21:48:59.490Z,99661.06
2022-10-21T21:51:30.362Z,99642.91
2022-10-21T21:53:58.868Z,99635.06
2022-10-21T21:56:27.089Z,99653.56
2022-10-21T21:58:56.077Z,99646.66
2022-10-21T22:01:26.587Z,99633.56
2022-10-21T22:03:54.608Z,99641.34
2022-10-21T22:08:57.576Z,99641.09
2022-10-21T22:11:27.380Z,99641.09
2022-10-21T22:13:55.367Z,99643.50
2022-10-21T22:16:25.693Z,99651.63
2022-10-21T22:18:54.505Z,99660.59
2022-10-21T22:21:22.441Z,99654.62
2022-10-21T22:23:51.048Z,99662.84
2022-10-21T22:26:20.450Z,99654.75
2022-10-21T22:28:47.888Z,99651.47
2022-10-21T22:31:17.355Z,99655.88
2022-10-21T22:33:45.582Z,99656.16
2022-10-21T22:36:13.384Z,99659.25
2022-10-21T22:38:41.073Z,99651.03
2022-10-21T22:41:12.240Z,99649.31
2022-10-21T22:43:40.481Z,99643.63
2022-10-21T22:46:29.165Z,99636.78
2022-10-21T22:48:55.612Z,99646.56
2022-10-21T22:51:23.341Z,99633.38
2022-10-21T22:53:55.293Z,99631.41
2022-10-21T22:56:25.689Z,99636.53
2022-10-21T22:58:53.092Z,99637.78
2022-10-21T23:01:20.589Z,99638.03
2022-10-21T23:03:48.253Z,99644.44
2022-10-21T23:06:15.683Z,99644.94
2022-10-21T23:08:43.179Z,99632.97
2022-10-21T23:11:10.858Z,99633.50
2022-10-21T23:13:41.366Z,99632.00
2022-10-21T23:16:14.981Z,99633.06
2022-10-21T23:18:42.400Z,99634.31
2022-10-21T23:21:09.787Z,99639.56
2022-10-21T23:23:37.489Z,99635.72
2022-10-21T23:26:05.543Z,99634.03
2022-10-21T23:28:33.287Z,99626.09
2022-10-21T23:31:01.260Z,99614.03
2022-10-21T23:33:28.637Z,99621.00
2022-10-21T23:35:56.108Z,99630.47
2022-10-21T23:38:23.785Z,99621.69
2022-10-21T23:40:51.176Z,99617.59
2022-10-21T23:43:18.622Z,99620.84
2022-10-21T23:45:48.828Z,99634.44
2022-10-21T23:48:16.279Z,99630.84
2022-10-21T23:50:44.688Z,99636.63
2022-10-21T23:53:12.518Z,99634.09
2022-10-21T23:55:39.914Z,99632.50
2022-10-21T23:58:07.719Z,99634.34
